Time;durP1;ratioP1;P1;durP2;ratioP2;P2;SDS_P1;SDS_P2;PMS_P1;PMS_P2;Temp;Humidity;BMP_temperature;BMP_pressure;BME280_temperature;BME280_humidity;BME280_pressure;Samples;Min_cycle;Max_cycle;Signal;HPM_P1;HPM_P2
2022/06/14 00:02:52;;;;;;;2.85;0.55;;;;;;;9.50;49.64;102287.03;5018877;28;20061;-79
2022/06/14 00:05:18;;;;;;;2.88;1.17;;;;;;;9.60;49.94;102282.53;5020576;28;20541;-78
2022/06/14 00:07:43;;;;;;;3.05;0.93;;;;;;;9.61;49.82;102289.50;4998450;28;20053;-79
2022/06/14 00:10:09;;;;;;;7.90;0.77;;;;;;;9.67;49.45;102278.94;5005370;28;21461;-76
2022/06/14 00:12:34;;;;;;;2.38;1.05;;;;;;;9.63;49.46;102279.88;5001585;28;20058;-77
2022/06/14 00:15:00;;;;;;;6.05;0.63;;;;;;;9.65;49.49;102285.06;4997680;28;20127;-78
2022/06/14 00:17:25;;;;;;;4.13;0.88;;;;;;;9.65;49.59;102282.47;4996258;28;20158;-78
2022/06/14 00:19:51;;;;;;;12.07;0.88;;;;;;;9.62;49.70;102278.16;4997312;28;20042;-78
2022/06/14 00:22:17;;;;;;;2.47;0.55;;;;;;;9.43;50.15;102277.53;4998209;28;20044;-81
2022/06/14 00:24:42;;;;;;;2.10;0.43;;;;;;;9.49;49.88;102273.97;5013128;28;20044;-77
2022/06/14 00:27:08;;;;;;;5.55;0.40;;;;;;;9.57;49.83;102277.38;5001943;28;20029;-76
2022/06/14 00:29:33;;;;;;;3.90;1.02;;;;;;;9.51;50.11;102272.22;5016801;28;20032;-79
2022/06/14 00:31:59;;;;;;;2.40;0.75;;;;;;;9.59;50.11;102270.38;5011276;28;20105;-79
2022/06/14 00:34:25;;;;;;;5.53;0.63;;;;;;;9.50;50.07;102265.25;4999198;28;20364;-77
2022/06/14 00:36:54;;;;;;;5.60;0.90;;;;;;;9.57;49.89;102269.53;4998245;28;20037;-78
2022/06/14 00:39:19;;;;;;;2.47;1.27;;;;;;;9.48;49.69;102267.91;5018218;28;20171;-77
2022/06/14 00:41:48;;;;;;;2.40;0.75;;;;;;;9.41;50.02;102266.28;5002254;28;20125;-80
2022/06/14 00:44:20;;;;;;;6.30;1.23;;;;;;;9.48;50.33;102267.06;4997075;28;20046;-78
2022/06/14 00:47:06;;;;;;;3.15;1.15;;;;;;;9.34;50.62;102264.59;5000775;28;20049;-78
2022/06/14 00:49:46;;;;;;;3.50;0.45;;;;;;;9.40;50.71;102273.22;4998275;28;20053;-78
2022/06/14 00:52:17;;;;;;;9.15;1.92;;;;;;;9.32;50.61;102272.47;5002627;28;20048;-79
2022/06/14 00:54:47;;;;;;;3.15;1.60;;;;;;;9.35;50.70;102271.56;5003851;28;20594;-79
2022/06/14 00:57:21;;;;;;;3.33;0.90;;;;;;;9.19;50.51;102273.50;4994015;28;20041;-80
2022/06/14 01:00:08;;;;;;;2.95;0.40;;;;;;;9.16;51.04;102270.91;5003011;28;20061;-79
2022/06/14 01:02:40;;;;;;;5.55;1.45;;;;;;;9.24;50.64;102276.91;5009017;28;20507;-78
2022/06/14 01:05:14;;;;;;;6.95;1.40;;;;;;;9.30;51.09;102287.28;5017814;28;20025;-79
2022/06/14 01:07:48;;;;;;;3.70;0.80;;;;;;;9.33;51.23;102279.41;4996652;28;20123;-78
2022/06/14 01:10:28;;;;;;;5.18;1.00;;;;;;;9.39;51.10;102274.09;5011066;28;20487;-77
2022/06/14 01:12:56;;;;;;;9.18;1.83;;;;;;;9.49;50.69;102279.22;4999114;28;20457;-77
2022/06/14 01:15:26;;;;;;;2.88;1.20;;;;;;;9.69;50.68;102281.53;5001715;28;20476;-77
2022/06/14 01:18:02;;;;;;;4.65;1.10;;;;;;;9.68;50.31;102280.69;5013058;28;20041;-78
2022/06/14 01:20:28;;;;;;;5.65;1.13;;;;;;;9.64;50.40;102283.38;5002925;28;20044;-78
2022/06/14 01:22:55;;;;;;;4.20;1.13;;;;;;;9.70;50.53;102286.75;5000853;28;20048;-79
2022/06/14 01:25:22;;;;;;;4.97;1.13;;;;;;;9.62;50.75;102285.13;4997032;28;20037;-77
2022/06/14 01:27:47;;;;;;;5.03;1.55;;;;;;;9.59;50.69;102286.03;5008061;28;20235;-75
2022/06/14 01:30:19;;;;;;;3.75;1.42;;;;;;;9.56;50.62;102271.25;5000932;28;20060;-78
2022/06/14 01:32:48;;;;;;;;;;;;;;;9.44;50.59;102276.66;5006778;28;20049;-75
2022/06/14 01:35:20;;;;;;;6.22;0.80;;;;;;;9.47;50.88;102286.19;5024433;28;19986;-77
2022/06/14 01:37:50;;;;;;;4.10;1.45;;;;;;;9.53;50.62;102296.56;5001920;28;20068;-77
2022/06/14 01:40:17;;;;;;;3.40;1.38;;;;;;;9.64;50.87;102294.66;5004228;28;20175;-77
2022/06/14 01:42:46;;;;;;;7.03;1.17;;;;;;;9.45;50.51;102290.56;5007253;28;20045;-77
2022/06/14 01:45:17;;;;;;;7.00;1.08;;;;;;;9.34;50.74;102269.81;5001968;28;20040;-76
2022/06/14 01:47:54;;;;;;;6.93;1.35;;;;;;;9.44;50.73;102271.44;5007322;28;20049;-79
2022/06/14 01:53:21;;;;;;;7.07;1.25;;;;;;;9.66;50.73;102265.94;5039355;28;20045;-74
2022/06/14 01:56:15;;;;;;;6.22;1.20;;;;;;;9.66;50.90;102272.00;5020196;28;20040;-75
2022/06/14 01:58:46;;;;;;;4.97;1.05;;;;;;;9.65;50.70;102272.88;5006732;28;20049;-78
2022/06/14 02:01:23;;;;;;;3.33;0.90;;;;;;;9.74;50.80;102274.50;4992744;28;20490;-78
2022/06/14 02:07:28;;;;;;;4.15;0.80;;;;;;;10.07;50.10;102273.19;5018465;28;20030;-80
2022/06/14 02:09:58;;;;;;;7.07;1.27;;;;;;;10.05;50.04;102269.72;4996880;28;20041;-79
2022/06/14 02:12:54;;;;;;;5.63;0.88;;;;;;;9.99;50.15;102264.59;4999081;28;20049;-79
2022/06/14 02:15:23;;;;;;;5.53;1.23;;;;;;;9.82;50.67;102272.69;5024239;28;20037;-77
2022/06/14 02:17:57;;;;;;;6.80;1.10;;;;;;;9.96;50.51;102264.66;5002521;28;20204;-79
2022/06/14 02:21:12;;;;;;;2.05;0.98;;;;;;;10.05;50.64;102268.88;5016503;28;20032;-76
2022/06/14 02:25:07;;;;;;;3.30;1.08;;;;;;;9.99;50.29;102259.38;4987740;28;20049;-78
2022/06/14 02:27:51;;;;;;;1.73;0.90;;;;;;;10.05;50.65;102258.41;4984942;28;20300;-80
2022/06/14 02:30:21;;;;;;;7.45;1.25;;;;;;;10.06;50.28;102253.19;5004285;28;20041;-80
2022/06/14 02:33:07;;;;;;;5.72;0.82;;;;;;;10.15;50.88;102258.25;5010610;28;20057;-81
2022/06/14 02:35:44;;;;;;;4.90;1.08;;;;;;;10.08;50.78;102261.84;5003190;28;20038;-80
2022/06/14 02:38:20;;;;;;;4.82;1.20;;;;;;;10.11;50.67;102264.41;4996784;28;20138;-80
2022/06/14 02:41:07;;;;;;;4.63;1.13;;;;;;;10.20;50.99;102248.56;4999257;28;20037;-79
2022/06/14 02:43:38;;;;;;;4.32;1.63;;;;;;;9.90;51.04;102259.50;5003824;28;20038;-80
2022/06/14 02:46:56;;;;;;;2.58;1.15;;;;;;;10.09;51.15;102255.72;5004654;28;20116;-79
2022/06/14 02:49:34;;;;;;;10.48;1.15;;;;;;;10.13;50.94;102246.09;4990138;28;20083;-76
2022/06/14 02:52:22;;;;;;;2.22;0.98;;;;;;;10.19;51.19;102246.88;5001563;28;20037;-80
2022/06/14 02:55:11;;;;;;;6.53;1.17;;;;;;;10.30;50.94;102264.09;4997247;28;20041;-78
2022/06/14 02:57:56;;;;;;;4.60;0.73;;;;;;;10.36;50.86;102258.78;4995258;28;20056;-80
2022/06/14 03:00:31;;;;;;;5.32;1.00;;;;;;;10.41;50.90;102254.31;5019338;28;20125;-78
2022/06/14 03:03:06;;;;;;;6.45;1.20;;;;;;;10.38;50.54;102251.78;4993881;28;20056;-79
2022/06/14 03:05:56;;;;;;;6.57;0.77;;;;;;;10.22;50.88;102246.81;5018004;28;20862;-78
2022/06/14 03:08:33;;;;;;;5.88;0.70;;;;;;;10.30;50.88;102238.81;5019385;28;20041;-77
2022/06/14 03:11:14;;;;;;;3.47;0.95;;;;;;;9.83;50.88;102247.44;5002917;28;20117;-78
2022/06/14 03:13:58;;;;;;;5.00;1.58;;;;;;;10.00;51.17;102248.91;4997837;28;20057;-79
2022/06/14 03:16:30;;;;;;;4.65;1.15;;;;;;;9.93;51.30;102256.88;5019424;28;20041;-79
2022/06/14 03:19:21;;;;;;;7.88;1.85;;;;;;;9.82;50.92;102256.16;4996336;28;20050;-79
2022/06/14 03:21:57;;;;;;;6.05;1.63;;;;;;;9.80;51.49;102253.56;4994805;28;20057;-78
2022/06/14 03:24:50;;;;;;;4.22;1.08;;;;;;;9.86;51.58;102266.53;5017546;28;20045;-78
2022/06/14 03:27:32;;;;;;;5.10;0.90;;;;;;;9.75;51.30;102261.44;5007428;28;20037;-77
2022/06/14 03:30:28;;;;;;;1.67;0.70;;;;;;;9.74;51.72;102251.00;5007630;28;20065;-78
2022/06/14 03:33:28;;;;;;;4.30;1.05;;;;;;;9.79;51.13;102252.72;5005608;28;20046;-77
2022/06/14 03:35:54;;;;;;;4.70;1.25;;;;;;;9.75;51.57;102251.00;5023836;28;20044;-79
2022/06/14 03:38:27;;;;;;;2.80;1.20;;;;;;;9.68;51.67;102257.19;5007465;28;20630;-77
2022/06/14 03:40:52;;;;;;;4.72;1.17;;;;;;;9.64;51.61;102258.13;5001757;28;20110;-78
2022/06/14 03:43:19;;;;;;;8.27;1.45;;;;;;;9.60;52.51;102259.03;4998035;28;20049;-77
2022/06/14 03:46:01;;;;;;;4.07;1.05;;;;;;;9.72;52.00;102260.59;5019806;28;20057;-77
2022/06/14 03:48:29;;;;;;;9.25;1.20;;;;;;;9.54;52.76;102262.63;5004090;28;20128;-78
2022/06/14 03:51:30;;;;;;;6.30;1.55;;;;;;;9.48;52.82;102257.47;5007323;28;20060;-77
2022/06/14 03:54:23;;;;;;;4.90;1.50;;;;;;;9.47;52.82;102254.88;4961375;28;20198;-78
2022/06/14 03:57:21;;;;;;;7.90;1.52;;;;;;;9.50;53.25;102252.22;5011926;28;20047;-78
2022/06/14 04:34:35;;;;;;;6.65;1.00;;;;;;;10.96;48.94;102255.97;4942795;28;20063;-76
2022/06/14 04:37:10;;;;;;;6.65;1.08;;;;;;;11.20;49.40;102254.63;4920613;28;20107;-78
2022/06/14 04:39:47;;;;;;;5.80;1.02;;;;;;;11.60;49.36;102266.00;4976161;28;20046;-77
2022/06/14 04:42:19;;;;;;;6.45;1.67;;;;;;;11.23;48.08;102254.53;4979633;28;20091;-77
2022/06/14 04:44:50;;;;;;;;;;;;;;;11.45;48.77;102260.19;5017521;28;20116;-77
2022/06/14 04:47:28;;;;;;;3.75;0.90;;;;;;;11.96;48.22;102258.22;5012925;28;20004;-78
2022/06/14 04:50:04;;;;;;;8.23;1.70;;;;;;;12.18;47.14;102254.19;4996141;28;20029;-78
2022/06/14 04:52:36;;;;;;;2.75;1.27;;;;;;;12.34;45.82;102252.03;5002255;28;20606;-78
2022/06/14 04:55:34;;;;;;;10.88;1.00;;;;;;;12.52;45.93;102260.31;5003445;28;20033;-79
2022/06/14 04:58:05;;;;;;;2.17;0.60;;;;;;;12.25;47.08;102263.59;4987588;28;20470;-77
2022/06/14 05:00:39;;;;;;;3.65;0.85;;;;;;;12.60;45.53;102259.22;5015904;28;20560;-78
2022/06/14 05:03:16;;;;;;;3.33;0.70;;;;;;;12.75;45.66;102257.97;5010095;28;20067;-77
2022/06/14 05:06:15;;;;;;;6.05;1.17;;;;;;;12.87;44.86;102256.75;5000812;28;20037;-78
2022/06/14 05:08:51;;;;;;;5.80;0.73;;;;;;;13.70;44.78;102275.38;4977957;28;20055;-76
2022/06/14 05:11:26;;;;;;;7.65;1.70;;;;;;;13.57;42.08;102267.03;5004541;28;20041;-79
2022/06/14 05:14:08;;;;;;;6.28;0.77;;;;;;;14.29;43.14;102269.09;4996564;28;20048;-77
2022/06/14 05:16:43;;;;;;;5.80;0.73;;;;;;;14.99;39.95;102271.03;5019722;28;20040;-78
2022/06/14 05:19:17;;;;;;;8.07;0.70;;;;;;;15.37;39.28;102269.66;5004549;28;20045;-78
2022/06/14 05:21:50;;;;;;;7.00;0.80;;;;;;;15.33;39.69;102275.13;4996150;28;20046;-78
2022/06/14 05:24:17;;;;;;;8.13;0.50;;;;;;;15.47;39.64;102278.06;4998573;28;20052;-77
2022/06/14 05:26:54;;;;;;;5.40;0.77;;;;;;;15.45;38.13;102279.91;5002059;28;20037;-77
2022/06/14 05:29:29;;;;;;;7.22;1.38;;;;;;;15.83;39.99;102285.44;5014691;28;20060;-78
2022/06/14 05:32:07;;;;;;;4.38;0.80;;;;;;;16.37;37.14;102280.63;5004455;28;20065;-78
2022/06/14 05:34:33;;;;;;;6.25;1.45;;;;;;;16.34;37.34;102286.03;4999312;28;20056;-78
2022/06/14 05:37:17;;;;;;;4.03;0.63;;;;;;;16.04;37.98;102282.88;5018972;28;20038;-79
2022/06/14 05:39:52;;;;;;;10.27;0.85;;;;;;;15.85;37.18;102293.31;5004191;28;20053;-79
2022/06/14 05:42:25;;;;;;;5.97;0.52;;;;;;;16.10;39.21;102285.28;5001158;28;20057;-79
2022/06/14 05:44:59;;;;;;;4.75;0.43;;;;;;;16.57;36.99;102287.69;5001691;28;20070;-78
2022/06/14 05:47:32;;;;;;;12.68;0.70;;;;;;;16.58;36.74;102284.16;5003945;28;20049;-79
2022/06/14 05:50:02;;;;;;;7.30;0.50;;;;;;;17.64;35.85;102282.03;5003509;28;20041;-82
2022/06/14 05:52:34;;;;;;;7.78;0.77;;;;;;;19.28;31.73;102284.25;5022632;28;20048;-79
2022/06/14 05:55:08;;;;;;;;;;;;;;;20.40;29.71;102282.34;5003619;28;20037;-78
2022/06/14 05:57:51;;;;;;;4.78;0.40;;;;;;;21.21;28.25;102276.50;5001880;28;19921;-79
2022/06/14 06:00:47;;;;;;;5.18;0.70;;;;;;;20.93;30.20;102280.91;5002481;28;20033;-76
2022/06/14 06:03:22;;;;;;;5.18;0.55;;;;;;;21.83;28.88;102284.06;5000533;28;20297;-77
2022/06/14 06:06:02;;;;;;;3.83;0.40;;;;;;;20.66;29.20;102277.25;5003373;28;20029;-80
2022/06/14 06:08:52;;;;;;;9.20;0.40;;;;;;;18.77;31.13;102283.44;5005992;28;20052;-78
2022/06/14 06:11:22;;;;;;;3.10;0.40;;;;;;;18.22;32.49;102289.78;5019276;28;20083;-78
2022/06/14 06:14:11;;;;;;;3.60;0.88;;;;;;;17.71;34.57;102287.88;5017021;28;20037;-78
2022/06/14 06:16:48;;;;;;;4.85;0.45;;;;;;;18.00;34.68;102295.25;5000414;28;20034;-78
2022/06/14 06:19:27;;;;;;;4.57;0.75;;;;;;;17.81;33.45;102300.59;5001103;28;20054;-78
2022/06/14 06:22:01;;;;;;;3.95;0.60;;;;;;;17.83;32.73;102298.72;4999549;28;20643;-78
2022/06/14 06:24:55;;;;;;;3.15;0.20;;;;;;;17.61;33.46;102300.69;4990561;28;20038;-76
2022/06/14 06:27:37;;;;;;;6.68;0.45;;;;;;;17.68;33.09;102303.91;5011092;28;20632;-80
2022/06/14 06:30:47;;;;;;;6.38;0.57;;;;;;;18.76;30.14;102300.25;5024240;28;20046;-78
2022/06/14 06:42:42;;;;;;;6.63;0.50;;;;;;;24.91;22.95;102297.47;4956503;28;20071;-77
2022/06/14 06:45:14;;;;;;;6.75;0.68;;;;;;;26.50;20.04;102302.22;4976111;28;20122;-79
2022/06/14 06:47:58;;;;;;;6.55;0.93;;;;;;;25.71;21.08;102304.44;4967759;28;20052;-79
2022/06/14 06:50:34;;;;;;;3.25;0.20;;;;;;;23.60;23.73;102309.16;4993509;28;20053;-78
2022/06/14 06:53:15;;;;;;;5.80;0.52;;;;;;;21.68;26.15;102312.53;5014540;28;20080;-77
2022/06/14 06:55:43;;;;;;;2.78;0.25;;;;;;;20.42;28.92;102311.47;4997227;28;20032;-78
2022/06/14 06:58:32;;;;;;;2.22;0.63;;;;;;;21.85;26.91;102306.13;4975314;28;20033;-78
2022/06/14 07:01:11;;;;;;;5.90;0.40;;;;;;;21.43;26.08;102313.22;5012927;28;20075;-79
2022/06/14 07:07:55;;;;;;;4.03;0.63;;;;;;;18.97;29.94;102311.56;5029947;28;20024;-79
2022/06/14 07:18:28;;;;;;;5.75;0.40;;;;;;;22.51;25.72;102314.16;5014547;28;20082;-77
2022/06/14 07:21:05;;;;;;;5.72;0.57;;;;;;;22.05;25.92;102318.09;4983921;28;20042;-78
2022/06/14 07:23:56;;;;;;;6.30;0.50;;;;;;;22.21;25.70;102312.63;5004559;28;20025;-77
2022/06/14 07:26:30;;;;;;;4.53;0.57;;;;;;;21.15;27.32;102311.44;5007486;28;20033;-76
2022/06/14 07:29:10;;;;;;;1.85;0.47;;;;;;;19.85;29.61;102318.22;5017382;28;20063;-77
2022/06/14 07:31:50;;;;;;;2.83;0.30;;;;;;;18.27;31.40;102323.94;5016818;28;20033;-76
2022/06/14 07:34:16;;;;;;;4.70;0.30;;;;;;;17.95;32.51;102329.00;5030205;28;20121;-76
2022/06/14 07:36:47;;;;;;;5.13;0.45;;;;;;;18.74;32.16;102325.13;5001896;28;20040;-77
2022/06/14 07:39:16;;;;;;;5.03;0.45;;;;;;;19.18;31.13;102321.94;5017781;28;20049;-76
2022/06/14 07:41:51;;;;;;;3.58;0.30;;;;;;;21.11;27.67;102323.22;5023937;28;20581;-76
2022/06/14 07:44:32;;;;;;;4.93;0.60;;;;;;;21.25;29.28;102327.69;5005619;28;20053;-77
2022/06/14 07:47:16;;;;;;;4.50;0.50;;;;;;;20.79;29.61;102323.38;5004181;28;20033;-77
2022/06/14 07:50:02;;;;;;;6.85;0.45;;;;;;;20.23;30.07;102327.63;4999310;28;20771;-76
2022/06/14 07:52:48;;;;;;;5.38;0.98;;;;;;;21.81;28.08;102325.06;5002508;28;20048;-78
2022/06/14 07:55:25;;;;;;;6.05;0.65;;;;;;;22.34;26.42;102326.84;5000729;28;20037;-78
2022/06/14 07:57:58;;;;;;;4.50;0.35;;;;;;;22.18;26.68;102323.47;4998908;28;20567;-79
2022/06/14 08:03:37;;;;;;;7.32;0.45;;;;;;;21.02;28.17;102321.13;5008146;28;20068;-79
2022/06/14 08:06:24;;;;;;;3.25;0.52;;;;;;;19.74;28.95;102327.75;5000112;28;20311;-79
2022/06/14 08:09:19;;;;;;;1.40;0.40;;;;;;;18.99;29.92;102322.06;5015982;28;20075;-79
2022/06/14 08:11:58;;;;;;;4.43;0.40;;;;;;;19.90;29.06;102323.28;5013133;28;20046;-78
2022/06/14 08:14:33;;;;;;;3.83;0.30;;;;;;;23.41;25.98;102315.84;5012889;28;20209;-78
2022/06/14 08:17:00;;;;;;;2.38;0.17;;;;;;;26.02;21.18;102315.25;4994354;28;20033;-76
2022/06/14 08:19:34;;;;;;;2.33;0.28;;;;;;;26.35;19.22;102318.75;5011039;28;20028;-77
2022/06/14 08:22:07;;;;;;;4.38;0.40;;;;;;;26.49;19.71;102313.06;5012354;28;20042;-79
2022/06/14 08:24:42;;;;;;;4.30;0.40;;;;;;;24.01;22.32;102324.81;5000673;28;20033;-79
2022/06/14 08:27:16;;;;;;;2.03;0.63;;;;;;;22.71;23.90;102315.50;5013792;28;20414;-78
2022/06/14 08:29:54;;;;;;;4.57;0.40;;;;;;;24.05;22.00;102320.09;5015148;28;20631;-78
2022/06/14 08:32:29;;;;;;;3.10;0.30;;;;;;;24.62;21.13;102313.13;5011850;28;20068;-77
2022/06/14 08:35:01;;;;;;;2.05;0.25;;;;;;;27.58;18.38;102308.00;4999697;28;20068;-79
2022/06/14 08:37:39;;;;;;;2.83;0.28;;;;;;;28.51;17.58;102307.41;5009480;28;20049;-77
2022/06/14 08:40:31;;;;;;;2.33;0.43;;;;;;;27.91;18.11;102302.25;5000547;28;20124;-82
2022/06/14 08:43:04;;;;;;;5.18;0.70;;;;;;;29.58;16.99;102298.81;4984393;28;20049;-81
2022/06/14 08:45:45;;;;;;;2.28;0.40;;;;;;;27.77;17.13;102312.59;5019623;28;20014;-79
2022/06/14 08:52:51;;;;;;;2.80;0.25;;;;;;;26.86;19.45;102308.06;5019671;28;20047;-76
2022/06/14 08:55:25;;;;;;;1.85;0.20;;;;;;;26.22;20.08;102310.91;4978509;28;20076;-79
2022/06/14 08:58:29;;;;;;;4.82;0.40;;;;;;;25.51;19.90;102307.84;5007380;28;20133;-77
2022/06/14 09:01:15;;;;;;;1.50;0.40;;;;;;;23.15;22.17;102314.19;5000311;28;20081;-77
2022/06/14 09:04:08;;;;;;;3.28;0.65;;;;;;;23.35;21.78;102310.97;4998886;28;20045;-77
2022/06/14 09:06:46;;;;;;;7.35;0.60;;;;;;;23.82;21.27;102306.63;5018552;28;20033;-78
2022/06/14 09:09:43;;;;;;;3.50;0.52;;;;;;;24.01;22.19;102307.94;4997919;28;20053;-78
2022/06/14 09:12:26;;;;;;;1.38;0.60;;;;;;;23.76;22.86;102312.41;5018681;28;20022;-78
2022/06/14 09:15:16;;;;;;;3.58;0.40;;;;;;;21.49;25.68;102315.53;5015557;28;20037;-79
2022/06/14 09:18:10;;;;;;;3.25;0.50;;;;;;;20.15;27.45;102314.78;5027237;28;20053;-80
2022/06/14 09:20:36;;;;;;;5.25;0.30;;;;;;;19.72;28.64;102319.88;5029739;28;20435;-77
2022/06/14 09:26:52;;;;;;;3.10;0.32;;;;;;;20.85;25.99;102320.38;5023779;28;20036;-77
2022/06/14 09:29:55;;;;;;;2.17;0.20;;;;;;;23.11;22.96;102323.34;4960021;28;20129;-78
2022/06/14 09:33:09;;;;;;;2.55;0.20;;;;;;;23.73;21.81;102312.63;5031107;28;20046;-77
2022/06/14 09:36:03;;;;;;;2.08;0.30;;;;;;;25.88;20.21;102313.72;5010429;28;20060;-78
2022/06/14 09:38:48;;;;;;;0.75;0.25;;;;;;;25.55;19.91;102312.84;5024895;28;20045;-78
2022/06/14 09:41:53;;;;;;;1.05;0.30;;;;;;;23.11;24.72;102323.34;5027936;28;20088;-76
2022/06/14 09:44:21;;;;;;;2.75;0.20;;;;;;;21.15;26.20;102328.28;4997501;28;20030;-76
2022/06/14 09:47:21;;;;;;;2.40;0.25;;;;;;;19.11;28.73;102332.03;5010624;28;20030;-79
2022/06/14 09:50:08;;;;;;;5.43;0.65;;;;;;;18.75;29.92;102330.34;5013393;28;20045;-79
2022/06/14 09:52:53;;;;;;;1.27;0.32;;;;;;;18.98;30.05;102330.97;5016261;28;20034;-78
2022/06/14 09:55:31;;;;;;;1.67;0.10;;;;;;;19.16;29.71;102335.25;5025506;28;20108;-76
2022/06/14 09:58:23;;;;;;;4.10;0.17;;;;;;;19.67;28.15;102327.25;5043921;28;20084;-79
2022/06/14 10:01:04;;;;;;;3.05;0.35;;;;;;;20.87;26.83;102323.81;5043066;28;20029;-78
2022/06/14 10:04:21;;;;;;;2.67;0.43;;;;;;;22.24;26.34;102324.88;5023508;23;20056;-75
2022/06/14 10:07:04;;;;;;;4.78;0.20;;;;;;;21.77;25.75;102319.06;4993067;28;20061;-72
2022/06/14 10:09:30;;;;;;;1.00;0.30;;;;;;;20.54;27.84;102316.88;4991983;28;20042;-72
2022/06/14 10:12:14;;;;;;;2.10;0.50;;;;;;;19.82;28.04;102317.56;4991434;28;20098;-72
2022/06/14 10:14:42;;;;;;;2.67;0.20;;;;;;;19.32;29.49;102318.53;4993153;28;20195;-72
2022/06/14 10:17:29;;;;;;;0.63;0.10;;;;;;;18.93;30.07;102327.69;4994536;28;20069;-74
2022/06/14 10:20:13;;;;;;;4.65;0.60;;;;;;;19.59;28.79;102318.84;4995341;28;20027;-73
2022/06/14 10:22:57;;;;;;;1.50;0.30;;;;;;;19.40;29.63;102311.03;4997234;28;20056;-74
2022/06/14 10:25:31;;;;;;;2.00;0.20;;;;;;;20.42;28.75;102307.00;4994176;28;20056;-74
2022/06/14 10:28:12;;;;;;;1.48;0.30;;;;;;;19.81;29.53;102313.19;4989916;28;20054;-75
2022/06/14 10:30:50;;;;;;;1.85;0.32;;;;;;;18.85;31.19;102320.09;5003640;28;20119;-75
2022/06/14 10:33:43;;;;;;;0.95;0.10;;;;;;;18.94;31.41;102324.09;5013292;28;20304;-75
2022/06/14 10:36:23;;;;;;;3.90;0.30;;;;;;;18.02;31.63;102319.84;4995730;28;20056;-72
2022/06/14 10:38:48;;;;;;;6.68;0.30;;;;;;;18.11;32.59;102323.81;4988547;28;20074;-72
2022/06/14 10:41:32;;;;;;;2.83;0.25;;;;;;;18.02;31.98;102319.84;4987078;28;20057;-71
2022/06/14 10:44:03;;;;;;;3.10;0.52;;;;;;;18.03;32.44;102320.72;5003673;28;20053;-72
2022/06/14 10:46:32;;;;;;;;;;;;;;;17.83;33.19;102319.03;4992622;28;20030;-73
2022/06/14 10:49:22;;;;;;;2.03;0.45;;;;;;;18.13;32.71;102318.47;4985365;28;19988;-71
2022/06/14 10:52:09;;;;;;;0.80;0.20;;;;;;;18.50;31.75;102320.16;4986734;28;20052;-75
2022/06/14 10:54:47;;;;;;;0.90;0.40;;;;;;;18.76;31.14;102316.16;4988340;28;20046;-72
2022/06/14 10:57:27;;;;;;;1.95;0.13;;;;;;;17.68;32.56;102320.63;4985946;28;20040;-74
2022/06/14 11:00:03;;;;;;;2.15;0.10;;;;;;;17.96;32.25;102319.28;4984912;28;20042;-73
2022/06/14 11:02:48;;;;;;;1.15;0.30;;;;;;;17.67;31.94;102318.91;4984385;28;20101;-72
2022/06/14 11:05:25;;;;;;;1.83;0.30;;;;;;;17.68;32.42;102312.69;4996942;28;20034;-73
2022/06/14 11:08:19;;;;;;;4.03;0.65;;;;;;;17.93;33.13;102317.63;4984132;28;20073;-73
2022/06/14 11:11:08;;;;;;;1.88;0.38;;;;;;;17.91;31.71;102310.72;4969624;28;20045;-74
2022/06/14 11:14:02;;;;;;;2.88;0.20;;;;;;;18.10;31.70;102319.47;4973542;28;20544;-73
2022/06/14 11:16:54;;;;;;;3.08;0.28;;;;;;;18.47;32.00;102313.22;4989827;28;20058;-74
2022/06/14 11:19:52;;;;;;;2.50;0.25;;;;;;;18.42;31.14;102314.38;4962368;28;20052;-74
2022/06/14 11:22:35;;;;;;;1.55;0.20;;;;;;;18.52;29.97;102320.06;4987239;28;20119;-73
2022/06/14 11:25:01;;;;;;;1.48;0.20;;;;;;;18.99;30.38;102309.69;4982200;28;20400;-74
2022/06/14 11:28:07;;;;;;;3.10;0.20;;;;;;;19.97;29.69;102310.50;4983989;28;20555;-73
2022/06/14 11:30:53;;;;;;;3.05;1.80;;;;;;;19.96;28.07;102309.66;4987605;28;20149;-73
2022/06/14 11:33:45;;;;;;;7.72;2.22;;;;;;;20.08;28.19;102301.00;4985018;28;20869;-72
2022/06/14 11:36:46;;;;;;;1.80;0.20;;;;;;;20.64;27.58;102298.63;4990210;28;20092;-73
2022/06/14 11:39:27;;;;;;;3.50;0.33;;;;;;;21.02;26.65;102302.53;4986258;28;20547;-72
2022/06/14 11:41:53;;;;;;;1.83;0.20;;;;;;;21.67;26.33;102302.00;4989927;28;20091;-72
2022/06/14 11:44:31;;;;;;;2.90;0.28;;;;;;;22.21;25.24;102295.81;4996671;28;20078;-72
2022/06/14 11:47:11;;;;;;;4.75;0.30;;;;;;;21.55;25.92;102298.31;4989083;28;20053;-72
2022/06/14 11:49:43;;;;;;;0.65;0.10;;;;;;;21.03;26.16;102296.28;5004266;28;20248;-73
2022/06/14 11:52:21;;;;;;;0.60;0.10;;;;;;;20.65;27.21;102288.84;4986852;28;20557;-73
2022/06/14 11:55:39;;;;;;;0.40;0.10;;;;;;;20.11;27.61;102294.66;4989927;28;20076;-72
2022/06/14 11:58:29;;;;;;;1.60;0.40;;;;;;;20.34;28.17;102295.97;4962054;28;20041;-72
2022/06/14 12:01:41;;;;;;;1.33;0.20;;;;;;;20.18;28.06;102292.50;4994838;28;20116;-74
2022/06/14 12:04:41;;;;;;;1.35;0.10;;;;;;;19.74;28.61;102294.09;4969728;28;20052;-73
2022/06/14 12:07:22;;;;;;;1.75;0.20;;;;;;;19.11;29.97;102294.91;4977293;28;20050;-73
2022/06/14 12:09:50;;;;;;;1.52;0.25;;;;;;;18.59;30.52;102292.34;4989296;28;20038;-73
2022/06/14 12:12:30;;;;;;;5.03;0.10;;;;;;;18.63;31.18;102293.88;4990323;28;20076;-71
2022/06/14 12:15:07;;;;;;;2.00;0.13;;;;;;;18.96;30.45;102295.75;4988502;28;20038;-72
2022/06/14 12:17:42;;;;;;;1.80;0.20;;;;;;;19.16;29.71;102289.38;4988891;28;20458;-73
2022/06/14 12:20:19;;;;;;;0.77;0.20;;;;;;;19.54;29.80;102283.75;4987685;28;20620;-74
2022/06/14 12:23:10;;;;;;;1.92;0.17;;;;;;;19.33;29.83;102283.16;4989706;28;20041;-71
2022/06/14 12:28:58;;;;;;;0.90;0.20;;;;;;;19.38;31.07;102292.56;4990062;28;20046;-73
2022/06/14 12:31:55;;;;;;;1.35;0.20;;;;;;;19.23;30.71;102280.13;5011165;28;20042;-75
2022/06/14 12:34:51;;;;;;;3.53;0.30;;;;;;;19.09;30.72;102275.59;4990911;28;20046;-74
2022/06/14 12:37:28;;;;;;;4.20;0.30;;;;;;;19.18;30.65;102275.09;4987698;28;20042;-75
2022/06/14 12:40:11;;;;;;;0.70;0.10;;;;;;;19.44;30.41;102273.66;4988087;28;20381;-74
2022/06/14 12:42:51;;;;;;;5.95;0.20;;;;;;;19.17;30.51;102276.03;4996516;28;20058;-74
2022/06/14 12:45:27;;;;;;;5.18;0.30;;;;;;;19.51;30.05;102276.81;4995304;28;20037;-73
2022/06/14 12:48:11;;;;;;;4.20;0.28;;;;;;;19.46;30.26;102268.28;4996418;28;20161;-75
2022/06/14 12:50:42;;;;;;;5.50;0.55;;;;;;;19.12;30.67;102275.41;5004290;28;20483;-75
2022/06/14 12:53:16;;;;;;;4.55;0.95;;;;;;;18.94;30.49;102273.75;4992321;28;20795;-75
2022/06/14 12:55:49;;;;;;;4.78;0.20;;;;;;;19.20;30.56;102267.91;4992399;28;20446;-75
2022/06/14 12:58:36;;;;;;;2.25;0.20;;;;;;;19.33;29.48;102267.25;4991520;28;20053;-74
2022/06/14 13:01:15;;;;;;;4.32;0.88;;;;;;;19.62;28.81;102263.84;4994191;28;20034;-73
2022/06/14 13:03:59;;;;;;;2.00;0.10;;;;;;;20.16;28.34;102270.50;4989336;28;20108;-75
2022/06/14 13:06:54;;;;;;;4.07;0.20;;;;;;;20.24;28.73;102268.25;4991346;28;20064;-73
2022/06/14 13:09:31;;;;;;;1.45;0.35;;;;;;;19.80;28.96;102261.09;4987514;28;21221;-74
2022/06/14 13:12:19;;;;;;;1.75;0.10;;;;;;;19.61;29.09;102263.91;4990246;28;20037;-74
2022/06/14 13:15:16;;;;;;;3.20;0.30;;;;;;;19.70;28.80;102260.75;5004583;28;20592;-74
2022/06/14 13:18:02;;;;;;;1.75;0.20;;;;;;;19.60;28.85;102262.22;4989301;28;20042;-73
2022/06/14 13:21:05;;;;;;;0.80;0.20;;;;;;;19.52;28.84;102254.66;4988924;28;20216;-73
2022/06/14 13:24:00;;;;;;;0.45;0.10;;;;;;;19.63;29.67;102265.53;4989629;28;20463;-74
2022/06/14 13:26:48;;;;;;;0.77;0.10;;;;;;;19.67;30.15;102260.94;4991878;28;20045;-74
2022/06/14 13:29:54;;;;;;;1.55;0.45;;;;;;;19.08;31.68;102258.00;4985734;28;20046;-74
2022/06/14 13:32:34;;;;;;;3.72;0.20;;;;;;;18.67;31.95;102264.50;4968309;28;20909;-73
2022/06/14 13:35:08;;;;;;;2.22;0.35;;;;;;;18.38;32.38;102257.25;4989434;28;20574;-74
2022/06/14 13:37:55;;;;;;;1.23;0.10;;;;;;;18.45;32.43;102262.16;4989042;28;20510;-74
2022/06/14 13:40:26;;;;;;;1.70;0.20;;;;;;;18.47;32.54;102262.94;4991050;28;20077;-73
2022/06/14 13:43:16;;;;;;;2.28;0.30;;;;;;;18.42;32.63;102253.50;4987837;28;20050;-74
2022/06/14 13:45:50;;;;;;;3.10;0.17;;;;;;;18.48;32.24;102262.00;4986928;28;20231;-74
2022/06/14 13:48:39;;;;;;;1.58;0.17;;;;;;;18.64;32.04;102255.91;4989813;28;20068;-74